Time;durP1;ratioP1;P1;durP2;ratioP2;P2;SDS_P1;SDS_P2;PMS_P1;PMS_P2;Temp;Humidity;BMP_temperature;BMP_pressure;BME280_temperature;BME280_humidity;BME280_pressure;Samples;Min_cycle;Max_cycle;Signal;HPM_P1;HPM_P2
2023/12/20 00:01:05;;;;;;;146.60;76.03;;;102.90;2227.20;;;;;;5048733;28;20024;-66
2023/12/20 00:03:31;;;;;;;48.63;29.23;;;102.80;2227.20;;;;;;5049099;28;20024;-66
2023/12/20 00:05:57;;;;;;;107.72;60.53;;;103.00;2227.20;;;;;;5049033;28;20063;-68
2023/12/20 00:08:22;;;;;;;92.70;53.72;;;103.10;2227.20;;;;;;5048696;28;20056;-69
2023/12/20 00:10:48;;;;;;;69.35;42.33;;;103.10;2227.20;;;;;;5048842;28;20021;-67
2023/12/20 00:13:14;;;;;;;102.40;58.70;;;103.00;2227.20;;;;;;5048916;28;20033;-68
2023/12/20 00:15:40;;;;;;;63.08;32.83;;;103.10;2227.20;;;;;;5048942;28;20463;-66
2023/12/20 00:18:05;;;;;;;50.50;30.13;;;103.10;2227.20;;;;;;5048692;28;20029;-66
2023/12/20 00:20:31;;;;;;;58.95;32.30;;;103.10;2227.20;;;;;;5048227;28;20021;-68
2023/12/20 00:22:58;;;;;;;134.27;65.88;;;103.20;2227.20;;;;;;5048140;28;20078;-71
2023/12/20 00:25:24;;;;;;;44.47;24.75;;;103.10;2227.20;;;;;;5048827;28;20025;-66
2023/12/20 00:27:50;;;;;;;34.78;21.60;;;103.20;2227.20;;;;;;5044488;28;20033;-69
2023/12/20 00:30:16;;;;;;;180.50;99.47;;;103.20;2227.20;;;;;;5038777;28;20074;-69
2023/12/20 00:32:48;;;;;;;102.20;59.80;;;103.10;2227.20;;;;;;5048574;28;20094;-66
2023/12/20 00:35:14;;;;;;;151.32;80.68;;;103.00;2227.20;;;;;;5049953;28;20021;-67
2023/12/20 00:37:40;;;;;;;154.65;86.70;;;103.00;2227.20;;;;;;5052639;28;20475;-69
2023/12/20 00:40:06;;;;;;;61.33;34.83;;;102.90;2227.20;;;;;;5052335;28;20024;-67
2023/12/20 00:42:34;;;;;;;67.97;36.88;;;102.80;2227.20;;;;;;5052839;28;20025;-67
2023/12/20 00:45:00;;;;;;;123.38;65.55;;;103.00;2227.20;;;;;;5052476;28;20037;-68
2023/12/20 00:47:26;;;;;;;79.80;46.40;;;102.90;2227.20;;;;;;5052215;28;20032;-69
2023/12/20 00:49:52;;;;;;;58.75;33.03;;;103.00;2227.20;;;;;;5052323;28;20024;-71
2023/12/20 00:52:18;;;;;;;205.75;108.35;;;102.90;2227.20;;;;;;5051851;28;20110;-69
2023/12/20 00:54:44;;;;;;;54.60;29.95;;;102.90;2227.20;;;;;;5051606;28;20025;-71
2023/12/20 00:57:10;;;;;;;134.38;67.95;;;102.90;2227.20;;;;;;5052636;28;20035;-70
2023/12/20 00:59:36;;;;;;;129.88;70.95;;;103.00;2227.20;;;;;;5046925;28;20568;-67
2023/12/20 01:02:02;;;;;;;31.15;15.73;;;102.80;2227.20;;;;;;5042122;28;20036;-69
2023/12/20 01:04:28;;;;;;;13.77;9.25;;;102.90;2227.20;;;;;;5051558;28;20467;-69
2023/12/20 01:06:54;;;;;;;70.18;37.92;;;102.90;2227.20;;;;;;5052060;28;20041;-70
2023/12/20 01:09:19;;;;;;;16.02;9.48;;;103.00;2227.20;;;;;;5051835;28;20098;-71
2023/12/20 01:11:48;;;;;;;27.88;17.27;;;103.00;2227.20;;;;;;5051726;28;20029;-69
2023/12/20 01:14:14;;;;;;;27.88;17.25;;;103.00;2227.20;;;;;;5051574;28;20025;-68
2023/12/20 01:16:40;;;;;;;47.80;30.40;;;103.00;2227.20;;;;;;5034153;28;20037;-66
2023/12/20 01:19:06;;;;;;;28.15;18.17;;;102.90;2227.20;;;;;;5051153;28;20431;-66
2023/12/20 01:21:32;;;;;;;22.63;14.32;;;102.90;2227.20;;;;;;5051887;28;20025;-67
2023/12/20 01:23:58;;;;;;;37.40;22.27;;;102.90;2227.20;;;;;;5051548;28;20036;-66
2023/12/20 01:26:23;;;;;;;16.48;11.13;;;102.80;2227.20;;;;;;5051581;28;20368;-67
2023/12/20 01:28:49;;;;;;;26.60;13.88;;;102.80;2227.20;;;;;;5051598;28;20029;-65
2023/12/20 01:31:15;;;;;;;43.35;24.80;;;102.80;2227.20;;;;;;5045155;28;20017;-70
2023/12/20 01:33:41;;;;;;;42.55;26.58;;;102.80;2227.20;;;;;;5043726;28;20033;-66
2023/12/20 01:36:06;;;;;;;57.45;32.83;;;102.90;2227.20;;;;;;5051685;28;20025;-70
2023/12/20 01:38:32;;;;;;;52.80;32.38;;;102.90;2227.20;;;;;;5051468;28;20471;-67
2023/12/20 01:40:59;;;;;;;39.20;24.73;;;102.60;2227.20;;;;;;5051279;28;20040;-66
2023/12/20 01:43:25;;;;;;;17.70;10.45;;;102.60;2227.20;;;;;;5051111;28;20056;-68
2023/12/20 01:45:51;;;;;;;20.20;11.57;;;102.80;2227.20;;;;;;5051783;28;20071;-68
2023/12/20 01:48:17;;;;;;;29.55;18.10;;;102.70;2227.20;;;;;;5050885;28;20025;-67
2023/12/20 01:50:45;;;;;;;25.58;14.82;;;102.50;2227.20;;;;;;5051193;28;20021;-67
2023/12/20 01:53:13;;;;;;;21.88;13.32;;;102.50;2227.20;;;;;;5050608;28;20076;-66
2023/12/20 01:55:40;;;;;;;25.30;16.77;;;102.60;2227.20;;;;;;5051507;28;20360;-68
2023/12/20 01:58:08;;;;;;;17.88;11.98;;;102.70;2227.20;;;;;;5051143;28;20017;-67
2023/12/20 02:00:35;;;;;;;20.80;12.07;;;102.80;2227.20;;;;;;5051071;28;20025;-66
2023/12/20 02:03:02;;;;;;;13.48;10.15;;;102.80;2227.20;;;;;;5049034;28;20027;-66
2023/12/20 02:05:29;;;;;;;17.88;11.23;;;102.80;2227.20;;;;;;5041080;28;20026;-68
2023/12/20 02:07:55;;;;;;;20.35;12.32;;;102.80;2227.20;;;;;;5050749;28;20044;-68
2023/12/20 02:10:21;;;;;;;14.48;10.00;;;102.80;2227.20;;;;;;5050997;28;20463;-68
2023/12/20 02:12:47;;;;;;;19.00;11.80;;;102.90;2227.20;;;;;;5050183;28;20395;-66
2023/12/20 02:15:13;;;;;;;39.47;19.92;;;102.90;2227.20;;;;;;5050975;28;20017;-67
2023/12/20 02:17:39;;;;;;;33.15;17.88;;;102.90;2227.20;;;;;;5050668;28;20092;-66
2023/12/20 02:20:06;;;;;;;20.15;11.15;;;103.00;2227.20;;;;;;5050642;28;20028;-66
2023/12/20 02:22:32;;;;;;;42.72;32.08;;;102.90;2227.20;;;;;;5050848;28;20179;-68
2023/12/20 02:24:57;;;;;;;16.70;12.27;;;102.80;2227.20;;;;;;5050111;28;20495;-65
2023/12/20 02:27:23;;;;;;;14.35;8.52;;;102.70;2227.20;;;;;;5050504;28;20066;-67
2023/12/20 02:29:50;;;;;;;17.42;10.07;;;102.70;2227.20;;;;;;5050374;28;20033;-67
2023/12/20 02:32:19;;;;;;;26.48;18.23;;;102.70;2227.20;;;;;;5050160;28;20040;-68
2023/12/20 02:34:47;;;;;;;30.15;17.88;;;102.70;2227.20;;;;;;5043753;28;20527;-68
2023/12/20 02:37:13;;;;;;;19.77;11.95;;;102.60;2227.20;;;;;;5041920;28;20059;-67
2023/12/20 02:39:39;;;;;;;18.00;10.60;;;102.70;2227.20;;;;;;5050218;28;20026;-66
2023/12/20 02:42:04;;;;;;;22.20;14.35;;;102.70;2227.20;;;;;;5050136;28;20032;-67
2023/12/20 02:44:30;;;;;;;14.13;10.15;;;102.60;2227.20;;;;;;5050245;28;20021;-69
2023/12/20 02:46:56;;;;;;;15.05;9.13;;;102.50;2227.20;;;;;;5049821;28;20036;-66
2023/12/20 02:49:21;;;;;;;18.20;10.90;;;102.60;2227.20;;;;;;5049999;28;20017;-67
2023/12/20 02:51:47;;;;;;;21.17;13.32;;;102.60;2227.20;;;;;;5049961;28;20116;-66
2023/12/20 02:54:14;;;;;;;24.83;14.05;;;102.60;2227.20;;;;;;5048724;28;20061;-70
2023/12/20 02:56:40;;;;;;;27.10;17.10;;;102.70;2227.20;;;;;;5049274;28;20025;-65
2023/12/20 02:59:05;;;;;;;21.80;14.85;;;102.70;2227.20;;;;;;5048291;28;20025;-65
2023/12/20 03:01:33;;;;;;;23.45;15.25;;;102.70;2227.20;;;;;;5049382;28;20052;-68
2023/12/20 03:03:59;;;;;;;29.02;16.55;;;102.70;2227.20;;;;;;5049083;28;20151;-70
2023/12/20 03:06:24;;;;;;;33.05;19.83;;;102.80;2227.20;;;;;;5036960;28;20108;-65
2023/12/20 03:08:50;;;;;;;38.47;26.60;;;102.70;2227.20;;;;;;5034975;28;20545;-66
2023/12/20 03:11:16;;;;;;;47.85;30.35;;;102.70;2227.20;;;;;;5049038;28;20025;-64
2023/12/20 03:13:42;;;;;;;40.20;26.45;;;102.80;2227.20;;;;;;5048809;28;20029;-67
2023/12/20 03:16:12;;;;;;;35.20;22.63;;;102.80;2227.20;;;;;;5048669;28;20025;-66
2023/12/20 03:18:37;;;;;;;39.75;24.52;;;102.80;2227.20;;;;;;5048695;28;20025;-66
2023/12/20 03:21:04;;;;;;;31.27;22.25;;;102.90;2227.20;;;;;;5048959;28;20024;-66
2023/12/20 03:23:32;;;;;;;30.95;20.88;;;102.90;2227.20;;;;;;5048854;28;20061;-65
2023/12/20 03:25:58;;;;;;;44.38;27.80;;;102.90;2227.20;;;;;;5048895;28;20029;-65
2023/12/20 03:28:24;;;;;;;44.00;25.35;;;102.90;2227.20;;;;;;5048698;28;20029;-67
2023/12/20 03:30:50;;;;;;;33.70;21.20;;;102.90;2227.20;;;;;;5049084;28;20104;-71
2023/12/20 03:33:15;;;;;;;90.70;55.75;;;102.80;2227.20;;;;;;5048318;28;20044;-68
2023/12/20 03:35:41;;;;;;;56.45;33.67;;;102.80;2227.20;;;;;;5048493;28;20086;-66
2023/12/20 03:38:07;;;;;;;36.25;23.83;;;102.80;2227.20;;;;;;5048556;28;20033;-65
2023/12/20 03:40:33;;;;;;;29.08;18.83;;;102.80;2227.20;;;;;;5048439;28;20021;-66
2023/12/20 03:42:59;;;;;;;27.50;17.83;;;102.80;2227.20;;;;;;5038762;28;20037;-66
2023/12/20 03:45:24;;;;;;;26.98;15.80;;;102.80;2227.20;;;;;;5046207;28;20025;-65
2023/12/20 03:47:54;;;;;;;22.45;14.07;;;102.80;2227.20;;;;;;5048366;28;20097;-66
2023/12/20 03:50:22;;;;;;;33.15;19.38;;;102.70;2227.20;;;;;;5048456;28;20387;-65
2023/12/20 03:52:48;;;;;;;34.05;20.10;;;102.70;2227.20;;;;;;5003266;28;1299344;-65
2023/12/20 03:55:14;;;;;;;31.83;19.70;;;102.60;2227.20;;;;;;5048601;28;20029;-66
2023/12/20 03:57:39;;;;;;;29.30;18.63;;;102.60;2227.20;;;;;;5049218;28;20025;-66
2023/12/20 04:00:10;;;;;;;18.00;11.98;;;102.60;2227.20;;;;;;5048872;28;20100;-66
2023/12/20 04:02:37;;;;;;;18.77;13.13;;;102.50;2227.20;;;;;;5048724;28;20479;-67
2023/12/20 04:05:02;;;;;;;14.20;8.68;;;102.50;2227.20;;;;;;5049238;28;20021;-66
2023/12/20 04:07:29;;;;;;;14.95;6.78;;;102.50;2227.20;;;;;;5049337;28;20025;-66
2023/12/20 04:09:55;;;;;;;11.68;7.15;;;102.50;2227.20;;;;;;5031855;28;20037;-65
2023/12/20 04:12:21;;;;;;;31.15;14.70;;;102.50;2227.20;;;;;;5053082;28;20048;-66
2023/12/20 04:14:46;;;;;;;33.03;16.88;;;102.50;2227.20;;;;;;5045419;28;20029;-66
2023/12/20 04:17:15;;;;;;;14.38;9.73;;;102.40;2227.20;;;;;;5046185;28;20029;-66
2023/12/20 04:19:42;;;;;;;13.90;7.47;;;102.40;2227.20;;;;;;5053033;28;20025;-67
2023/12/20 04:22:07;;;;;;;10.20;5.75;;;102.40;2227.20;;;;;;5052752;28;20068;-66
2023/12/20 04:24:33;;;;;;;8.60;5.35;;;102.40;2227.20;;;;;;5052861;28;20057;-66
2023/12/20 04:26:59;;;;;;;9.52;5.68;;;77.70;2227.20;;;;;;5052830;28;20025;-68
2023/12/20 04:29:25;;;;;;;8.38;5.03;;;77.70;2227.20;;;;;;5052637;28;20029;-66
2023/12/20 04:31:51;;;;;;;19.40;10.57;;;102.40;2227.20;;;;;;5052786;28;20075;-72
2023/12/20 04:34:17;;;;;;;21.55;12.43;;;102.40;2227.20;;;;;;5052414;28;20079;-67
2023/12/20 04:36:43;;;;;;;35.85;20.00;;;102.50;2227.20;;;;;;5052507;28;20047;-65
2023/12/20 04:39:09;;;;;;;42.45;20.58;;;102.50;2227.20;;;;;;5052924;28;20029;-64
2023/12/20 04:41:35;;;;;;;58.60;32.45;;;102.60;2227.20;;;;;;5052618;28;20430;-66
2023/12/20 04:44:02;;;;;;;13.07;8.00;;;102.60;2227.20;;;;;;5052621;28;20025;-67
2023/12/20 04:46:27;;;;;;;9.68;5.15;;;102.40;2227.20;;;;;;5038641;28;20076;-65
2023/12/20 04:48:53;;;;;;;11.40;5.07;;;102.40;2227.20;;;;;;5052050;28;20024;-66
2023/12/20 04:51:19;;;;;;;52.35;29.75;;;102.50;2227.20;;;;;;5052352;28;20375;-66
2023/12/20 04:53:45;;;;;;;27.27;15.20;;;102.60;2227.20;;;;;;5052152;28;20411;-65
2023/12/20 04:56:10;;;;;;;20.55;11.15;;;102.70;2227.20;;;;;;5052415;28;20029;-66
2023/12/20 04:58:36;;;;;;;40.55;21.20;;;102.70;2227.20;;;;;;5052245;28;20071;-64
2023/12/20 05:01:03;;;;;;;11.70;7.05;;;102.80;2227.20;;;;;;5052027;28;20045;-69
2023/12/20 05:03:28;;;;;;;11.77;6.80;;;102.90;2227.20;;;;;;5052348;28;20379;-70
2023/12/20 05:05:54;;;;;;;33.00;18.88;;;103.00;2227.20;;;;;;5052150;28;20035;-65
2023/12/20 05:08:20;;;;;;;45.00;26.23;;;103.20;2227.20;;;;;;5052445;28;20490;-70
2023/12/20 05:10:46;;;;;;;45.95;27.42;;;103.20;2227.20;;;;;;5051937;28;20379;-65
2023/12/20 05:13:12;;;;;;;44.72;25.77;;;103.20;2227.20;;;;;;5052274;28;20374;-67
2023/12/20 05:15:37;;;;;;;24.73;15.82;;;103.20;2227.20;;;;;;5051987;28;20032;-67
2023/12/20 05:18:03;;;;;;;22.48;13.00;;;103.20;2227.20;;;;;;5051673;28;20040;-66
2023/12/20 05:20:29;;;;;;;33.20;29.83;;;103.20;2227.20;;;;;;5051651;28;20040;-70
2023/12/20 05:22:55;;;;;;;24.48;15.85;;;103.30;2227.20;;;;;;5046487;28;20037;-66
2023/12/20 05:25:20;;;;;;;8.10;6.07;;;103.20;2227.20;;;;;;5044693;28;20095;-66
2023/12/20 05:27:46;;;;;;;15.73;5.25;;;103.20;2227.20;;;;;;5034270;28;20076;-65
2023/12/20 05:30:12;;;;;;;13.57;6.40;;;103.10;2227.20;;;;;;5051625;28;20200;-69
2023/12/20 05:32:38;;;;;;;8.52;5.45;;;103.10;2227.20;;;;;;5051562;28;20556;-66
2023/12/20 05:35:04;;;;;;;12.52;6.05;;;103.10;2227.20;;;;;;5051346;28;20013;-68
2023/12/20 05:37:29;;;;;;;11.82;5.18;;;103.10;2227.20;;;;;;5050986;28;20025;-69
2023/12/20 05:39:55;;;;;;;9.50;4.93;;;103.20;2227.20;;;;;;5051087;28;20021;-65
2023/12/20 05:42:21;;;;;;;13.63;7.68;;;103.30;2227.20;;;;;;5051713;28;20032;-69
2023/12/20 05:44:47;;;;;;;14.55;7.22;;;103.30;2227.20;;;;;;5051487;28;20021;-70
2023/12/20 05:47:14;;;;;;;9.25;5.97;;;103.30;2227.20;;;;;;5051410;28;20037;-66
2023/12/20 05:49:39;;;;;;;8.27;5.20;;;128.00;2252.80;;;;;;5050961;28;20487;-65
2023/12/20 05:52:05;;;;;;;18.17;10.77;;;128.10;2252.80;;;;;;5050681;28;20106;-66
2023/12/20 05:54:31;;;;;;;14.38;6.32;;;128.00;2252.80;;;;;;5045834;28;20087;-66
2023/12/20 05:56:57;;;;;;;17.83;9.25;;;128.00;2252.80;;;;;;5049028;28;20078;-64
2023/12/20 05:59:23;;;;;;;9.98;5.10;;;103.30;2227.20;;;;;;5040020;28;20067;-65
2023/12/20 06:01:49;;;;;;;7.13;4.20;;;128.00;2252.80;;;;;;5051075;28;20125;-66
2023/12/20 06:04:15;;;;;;;5.50;3.85;;;128.20;2252.80;;;;;;5050755;28;20029;-67
2023/12/20 06:06:42;;;;;;;15.20;8.43;;;128.30;2252.80;;;;;;5051214;28;20029;-66
2023/12/20 06:09:08;;;;;;;11.30;7.15;;;128.20;2252.80;;;;;;5050820;28;20033;-65
2023/12/20 06:11:33;;;;;;;11.65;7.53;;;128.20;2252.80;;;;;;5050610;28;20036;-66
2023/12/20 06:13:59;;;;;;;28.00;14.10;;;128.30;2252.80;;;;;;5050877;28;20039;-65
2023/12/20 06:16:25;;;;;;;30.77;17.65;;;128.40;2252.80;;;;;;5050779;28;20041;-66
2023/12/20 06:18:51;;;;;;;12.85;7.78;;;128.40;2252.80;;;;;;5050710;28;20108;-67
2023/12/20 06:21:16;;;;;;;10.90;6.43;;;128.30;2252.80;;;;;;5050661;28;20070;-68
2023/12/20 06:23:42;;;;;;;13.73;8.35;;;128.30;2252.80;;;;;;5050674;28;20549;-68
2023/12/20 06:26:09;;;;;;;23.70;12.90;;;128.30;2252.80;;;;;;5050140;28;20053;-67
2023/12/20 06:28:35;;;;;;;176.27;105.72;;;128.30;2252.80;;;;;;5036010;28;20084;-68
2023/12/20 06:31:01;;;;;;;23.20;13.82;;;128.20;2252.80;;;;;;5037459;28;20032;-65
2023/12/20 06:33:27;;;;;;;15.50;9.55;;;128.10;2252.80;;;;;;5049589;28;20045;-66
2023/12/20 06:35:52;;;;;;;11.75;8.35;;;128.10;2252.80;;;;;;5050569;28;20356;-65
2023/12/20 06:38:19;;;;;;;15.40;10.85;;;128.20;2252.80;;;;;;5050357;28;20060;-65
2023/12/20 06:40:45;;;;;;;9.10;5.63;;;128.00;2252.80;;;;;;5050449;28;20028;-65
2023/12/20 06:43:12;;;;;;;11.65;7.93;;;103.30;2227.20;;;;;;5050059;28;20117;-66
2023/12/20 06:45:37;;;;;;;197.13;110.53;;;128.10;2252.80;;;;;;5050203;28;20032;-63
2023/12/20 06:48:03;;;;;;;178.15;113.38;;;128.40;2252.80;;;;;;5049970;28;20029;-61
2023/12/20 06:50:29;;;;;;;113.10;70.78;;;128.70;2252.80;;;;;;5050372;28;20021;-61
2023/12/20 06:52:55;;;;;;;99.10;57.15;;;128.70;2252.80;;;;;;5049601;28;20143;-60
2023/12/20 06:55:21;;;;;;;134.35;82.07;;;128.70;2252.80;;;;;;5049991;28;20021;-62
2023/12/20 06:57:46;;;;;;;115.13;69.43;;;128.90;2252.80;;;;;;5049801;28;20040;-62
2023/12/20 07:00:13;;;;;;;107.20;66.60;;;153.60;2252.80;;;;;;5048149;28;20014;-60
2023/12/20 07:02:38;;;;;;;99.13;63.75;;;153.60;2252.80;;;;;;5040113;28;20040;-60
2023/12/20 07:05:04;;;;;;;88.78;54.58;;;153.70;2252.80;;;;;;5049807;28;20025;-61
2023/12/20 07:07:30;;;;;;;60.47;40.10;;;153.80;2252.80;;;;;;5050164;28;20592;-60
2023/12/20 07:09:56;;;;;;;46.30;29.38;;;153.80;2252.80;;;;;;5049166;28;20108;-61
2023/12/20 07:12:22;;;;;;;38.83;24.63;;;153.90;2252.80;;;;;;5049450;28;20082;-61
2023/12/20 07:14:47;;;;;;;88.18;53.08;;;153.90;2252.80;;;;;;5049404;28;20375;-62
2023/12/20 07:17:15;;;;;;;89.05;49.78;;;153.80;2252.80;;;;;;5049504;28;20017;-61
2023/12/20 07:19:41;;;;;;;23.52;16.33;;;153.80;2252.80;;;;;;5049559;28;20024;-61
2023/12/20 07:22:07;;;;;;;31.55;18.02;;;153.70;2252.80;;;;;;5049267;28;20036;-61
2023/12/20 07:24:34;;;;;;;45.97;27.15;;;153.80;2252.80;;;;;;5049311;28;20021;-60
2023/12/20 07:27:00;;;;;;;20.08;11.00;;;153.90;2252.80;;;;;;5049579;28;20029;-62
2023/12/20 07:29:26;;;;;;;22.67;14.77;;;153.70;2252.80;;;;;;5049595;28;20017;-59
2023/12/20 07:31:53;;;;;;;67.13;40.38;;;153.70;2252.80;;;;;;5049519;28;20032;-61
2023/12/20 07:34:20;;;;;;;48.45;30.77;;;153.80;2252.80;;;;;;5045643;28;20036;-61
2023/12/20 07:36:46;;;;;;;22.52;14.60;;;154.10;2252.80;;;;;;5038219;28;20018;-63
2023/12/20 07:39:11;;;;;;;16.63;10.15;;;154.10;2252.80;;;;;;5049029;28;20029;-61
2023/12/20 07:41:37;;;;;;;31.35;20.13;;;154.20;2252.80;;;;;;5049719;28;20032;-60
2023/12/20 07:44:04;;;;;;;31.77;19.77;;;154.40;2252.80;;;;;;5049312;28;20029;-62
2023/12/20 07:46:30;;;;;;;95.05;60.50;;;154.50;2252.80;;;;;;5049434;28;20027;-62
2023/12/20 07:48:56;;;;;;;89.28;52.35;;;179.20;2252.80;;;;;;5049105;28;20096;-62
2023/12/20 07:51:22;;;;;;;131.90;78.40;;;179.30;2252.80;;;;;;5049338;28;20482;-64
2023/12/20 07:53:47;;;;;;;176.52;107.68;;;179.50;2252.80;;;;;;5049177;28;20055;-61
2023/12/20 07:56:17;;;;;;;42.28;26.13;;;179.50;2252.80;;;;;;5049108;28;20028;-61
2023/12/20 07:58:44;;;;;;;28.00;17.00;;;179.50;2252.80;;;;;;5049288;28;20053;-60
2023/12/20 08:01:11;;;;;;;28.92;18.65;;;179.60;2252.80;;;;;;5049482;28;20021;-61
2023/12/20 08:03:37;;;;;;;28.15;18.17;;;179.60;2252.80;;;;;;5048526;28;20044;-65
2023/12/20 08:06:03;;;;;;;20.38;13.60;;;179.90;2252.80;;;;;;5035378;28;20026;-61
2023/12/20 08:08:29;;;;;;;58.17;36.88;;;180.10;2252.80;;;;;;5049357;28;20021;-63
2023/12/20 08:10:54;;;;;;;57.92;37.35;;;180.10;2252.80;;;;;;5049111;28;20063;-61
2023/12/20 08:13:24;;;;;;;36.60;25.58;;;180.00;2252.80;;;;;;5049313;28;20360;-61
2023/12/20 08:15:50;;;;;;;30.35;20.20;;;179.90;2252.80;;;;;;5049010;28;20116;-61
2023/12/20 08:18:16;;;;;;;36.95;26.70;;;179.90;2252.80;;;;;;5048744;28;20108;-62
2023/12/20 08:20:42;;;;;;;15.82;10.90;;;204.80;2252.80;;;;;;5031387;28;20066;-61
2023/12/20 08:23:07;;;;;;;14.05;10.55;;;205.00;2252.80;;;;;;5048605;28;20052;-62
2023/12/20 08:25:33;;;;;;;22.13;12.45;;;205.30;2252.80;;;;;;5030706;28;20479;-62
2023/12/20 08:27:59;;;;;;;76.32;46.67;;;230.40;2252.80;;;;;;5048768;28;20017;-62
2023/12/20 08:30:25;;;;;;;39.38;24.77;;;230.80;2252.80;;;;;;5048472;28;20028;-62
2023/12/20 08:32:51;;;;;;;28.20;19.70;;;256.00;2252.80;;;;;;5048629;28;20044;-61
2023/12/20 08:35:17;;;;;;;30.40;19.00;;;256.40;2252.80;;;;;;5048705;28;20014;-62
2023/12/20 08:37:43;;;;;;;47.65;30.65;;;256.60;2252.80;;;;;;5048582;28;20033;-62
2023/12/20 08:40:09;;;;;;;54.78;38.10;;;281.70;2278.40;;;;;;5048850;28;20025;-62
2023/12/20 08:42:35;;;;;;;107.53;78.20;;;307.20;2304.00;;;;;;5041748;28;20455;-62
2023/12/20 08:45:03;;;;;;;42.17;33.25;;;307.60;2252.80;;;;;;5043952;28;20037;-61
2023/12/20 08:47:29;;;;;;;43.95;34.05;;;332.90;2227.20;;;;;;5048815;28;20033;-62
2023/12/20 08:49:59;;;;;;;52.72;41.90;;;333.20;2176.00;;;;;;5048398;28;20035;-61
2023/12/20 08:52:27;;;;;;;47.55;38.15;;;333.40;2124.80;;;;;;5048149;28;20549;-60
2023/12/20 08:54:53;;;;;;;29.83;24.63;;;333.30;2099.20;;;;;;5030940;28;20021;-61
2023/12/20 08:57:25;;;;;;;73.68;52.63;;;333.10;2099.20;;;;;;5052215;28;20426;-61
2023/12/20 08:59:51;;;;;;;234.02;177.07;;;332.80;2176.00;;;;;;5053171;28;20017;-65
2023/12/20 09:02:17;;;;;;;498.90;407.35;;;308.10;2176.00;;;;;;5053422;28;20025;-62
2023/12/20 09:04:43;;;;;;;417.63;320.63;;;282.50;2252.80;;;;;;5052759;28;20017;-62
2023/12/20 09:07:25;;;;;;;329.50;267.98;;;307.30;2278.40;;;;;;5052821;28;20025;-63
2023/12/20 09:09:52;;;;;;;455.60;367.60;;;332.90;2227.20;;;;;;5052013;28;20075;-61
2023/12/20 09:12:21;;;;;;;322.60;248.60;;;333.20;2201.60;;;;;;5051413;28;20120;-62
2023/12/20 09:14:48;;;;;;;208.20;158.70;;;333.00;2150.40;;;;;;5049636;28;20104;-60
2023/12/20 09:17:13;;;;;;;226.93;174.85;;;333.20;2073.60;;;;;;5040277;28;20033;-61
2023/12/20 09:19:39;;;;;;;271.80;225.00;;;358.60;2048.00;;;;;;5037748;28;20407;-61
2023/12/20 09:22:07;;;;;;;182.65;141.40;;;358.90;1996.80;;;;;;5051402;28;20052;-61
2023/12/20 09:24:33;;;;;;;141.63;110.78;;;358.50;2048.00;;;;;;5051852;28;20146;-61
2023/12/20 09:26:59;;;;;;;194.00;149.50;;;333.40;2073.60;;;;;;5052221;28;20029;-62
2023/12/20 09:29:24;;;;;;;343.40;255.07;;;307.90;2150.40;;;;;;5051991;28;20712;-59
2023/12/20 09:31:50;;;;;;;322.40;242.10;;;307.20;2176.00;;;;;;5052010;28;20078;-63
2023/12/20 09:34:19;;;;;;;292.85;229.38;;;282.50;2201.60;;;;;;5051501;28;20033;-65
2023/12/20 09:36:47;;;;;;;216.82;171.75;;;282.30;2227.20;;;;;;5051923;28;20100;-63
2023/12/20 09:39:21;;;;;;;196.32;159.10;;;282.50;2201.60;;;;;;5051716;28;20021;-61
2023/12/20 09:42:04;;;;;;;189.13;149.20;;;282.50;2227.20;;;;;;5051220;28;20104;-68
2023/12/20 09:44:31;;;;;;;201.75;149.60;;;282.40;2227.20;;;;;;5051397;28;20508;-68
2023/12/20 09:46:57;;;;;;;268.27;208.63;;;282.30;2227.20;;;;;;5048212;28;20426;-67
2023/12/20 09:49:23;;;;;;;317.13;239.27;;;282.00;2278.40;;;;;;5041241;28;20545;-61
2023/12/20 09:51:53;;;;;;;399.35;299.63;;;281.70;2278.40;;;;;;5050514;28;20021;-67
2023/12/20 09:54:20;;;;;;;405.70;287.60;;;281.90;2278.40;;;;;;5032920;28;20402;-67
2023/12/20 09:56:46;;;;;;;389.45;277.83;;;282.10;2278.40;;;;;;5050520;28;20029;-68
2023/12/20 09:59:13;;;;;;;183.00;132.95;;;282.30;2278.40;;;;;;5050720;28;20037;-60
2023/12/20 10:01:40;;;;;;;269.52;181.95;;;282.50;2252.80;;;;;;5050435;28;20025;-60
2023/12/20 10:04:08;;;;;;;300.65;224.32;;;282.50;2252.80;;;;;;5050380;28;20479;-60
2023/12/20 10:06:39;;;;;;;322.30;224.52;;;307.40;2278.40;;;;;;5050108;28;20104;-61
2023/12/20 10:09:05;;;;;;;321.98;229.65;;;282.50;2252.80;;;;;;5049557;28;20025;-63
2023/12/20 10:11:31;;;;;;;353.90;237.85;;;282.20;2252.80;;;;;;5051224;28;20029;-64
2023/12/20 10:14:03;;;;;;;316.50;203.98;;;282.10;2278.40;;;;;;5050741;28;20037;-67
2023/12/20 10:16:29;;;;;;;131.15;91.13;;;282.50;2227.20;;;;;;5037822;28;20092;-68
2023/12/20 10:18:56;;;;;;;93.05;65.13;;;307.40;2150.40;;;;;;5050343;28;20387;-61
2023/12/20 10:21:22;;;;;;;142.52;100.30;;;307.60;2048.00;;;;;;5050941;28;20438;-67
2023/12/20 10:23:52;;;;;;;277.95;195.35;;;307.80;2099.20;;;;;;5048751;28;20025;-67
2023/12/20 10:26:25;;;;;;;409.17;285.33;;;307.70;2201.60;;;;;;5031887;28;20026;-67
2023/12/20 10:28:51;;;;;;;;;;;307.80;2227.20;;;;;;5046345;28;20471;-64
2023/12/20 10:31:31;;;;;;;291.55;211.50;;;307.50;2201.60;;;;;;5050382;28;19908;-67
2023/12/20 10:34:01;;;;;;;279.60;202.00;;;307.20;2252.80;;;;;;5050106;28;20025;-64
2023/12/20 10:36:31;;;;;;;276.20;195.90;;;282.50;2227.20;;;;;;5050527;28;20025;-68
2023/12/20 10:38:58;;;;;;;177.70;123.47;;;307.20;2201.60;;;;;;5050208;28;20027;-61
2023/12/20 10:41:32;;;;;;;198.23;145.25;;;307.40;2124.80;;;;;;5050287;28;20047;-61
2023/12/20 10:44:02;;;;;;;130.13;92.07;;;307.40;2150.40;;;;;;5050172;28;20021;-60
2023/12/20 10:46:30;;;;;;;154.48;104.78;;;307.40;2073.60;;;;;;5050231;28;20475;-68
2023/12/20 10:48:57;;;;;;;282.92;198.38;;;307.60;2048.00;;;;;;5049948;28;20383;-67
2023/12/20 10:51:26;;;;;;;428.00;324.48;;;307.70;2099.20;;;;;;5049960;28;20043;-66
2023/12/20 10:53:53;;;;;;;446.23;337.05;;;307.40;2252.80;;;;;;5050057;28;20052;-61
2023/12/20 10:56:20;;;;;;;372.48;290.30;;;307.50;2278.40;;;;;;5049750;28;20100;-66
2023/12/20 10:58:47;;;;;;;401.60;320.10;;;282.30;2278.40;;;;;;5043614;28;20032;-64
2023/12/20 11:01:15;;;;;;;436.15;337.15;;;282.10;2278.40;;;;;;5045134;28;20013;-67
2023/12/20 11:03:48;;;;;;;608.40;449.25;;;282.00;2278.40;;;;;;5049776;28;20047;-62
2023/12/20 11:06:52;;;;;;;530.28;401.27;;;282.00;2278.40;;;;;;5049357;28;20112;-61
2023/12/20 11:09:34;;;;;;;414.40;309.17;;;282.00;2278.40;;;;;;5038607;28;20043;-60
2023/12/20 11:12:10;;;;;;;273.00;208.18;;;282.10;2278.40;;;;;;5050124;28;20056;-67
2023/12/20 11:14:45;;;;;;;294.00;225.98;;;282.10;2278.40;;;;;;5049407;28;20386;-67
2023/12/20 11:17:14;;;;;;;261.90;200.73;;;282.00;2278.40;;;;;;5049785;28;20534;-61
2023/12/20 11:19:58;;;;;;;267.77;205.02;;;282.20;2278.40;;;;;;5049078;28;20017;-67
2023/12/20 11:22:29;;;;;;;290.50;217.77;;;282.00;2278.40;;;;;;5049160;28;20033;-61
2023/12/20 11:25:18;;;;;;;305.33;223.70;;;282.10;2278.40;;;;;;5049394;28;20375;-60
2023/12/20 11:28:04;;;;;;;281.30;208.23;;;307.20;2304.00;;;;;;5048528;28;20036;-68
2023/12/20 11:30:50;;;;;;;199.68;146.65;;;307.30;2304.00;;;;;;5049223;28;20479;-68
2023/12/20 11:33:20;;;;;;;208.02;147.10;;;307.40;2278.40;;;;;;5048974;28;20466;-68
2023/12/20 11:35:46;;;;;;;169.82;107.20;;;307.50;2252.80;;;;;;5042848;28;20064;-67
2023/12/20 11:38:14;;;;;;;125.75;85.28;;;307.50;2201.60;;;;;;5042952;28;20540;-67
2023/12/20 11:40:41;;;;;;;88.03;57.80;;;307.70;2201.60;;;;;;5049264;28;20474;-65
2023/12/20 11:43:07;;;;;;;72.53;51.67;;;307.80;2176.00;;;;;;5049043;28;20029;-67
2023/12/20 11:45:34;;;;;;;61.72;40.08;;;307.60;2227.20;;;;;;5049357;28;20017;-61
2023/12/20 11:48:04;;;;;;;62.53;43.20;;;307.50;2227.20;;;;;;5049509;28;20095;-67
2023/12/20 11:50:30;;;;;;;100.35;68.28;;;307.50;2252.80;;;;;;5049332;28;20017;-67
2023/12/20 11:52:56;;;;;;;69.47;48.75;;;307.40;2252.80;;;;;;5048695;28;20037;-67
2023/12/20 11:55:25;;;;;;;79.15;55.08;;;307.60;2201.60;;;;;;5048870;28;20032;-62